FMMI/TNR METAR and TAF weather

Enter ICAO airport designator
Station Type Date Time Source
FMMI METAR 2021/03/06 01:30 UTC NOAA

FMMI 060130Z 30011KT 6000 -RA FEW010 BKN020 18/18 Q1011 NOSIG


Station Type Date Time Source
FMMI Decoded METAR 2021/03/06 01:30 UTC NOAA

Antananarivo / Ivato, Madagascar (FMMI) 18-48S 047-29E 1276M
Mar 05, 2021 - 08:30 PM EST / 2021.03.06 0130 UTC
Wind: from the WNW (300 degrees) at 13 MPH (11 KT):0
Visibility: 3 mile(s):0
Sky conditions: mostly cloudy
Weather: light rain
Temperature: 64 F (18 C)
Dew Point: 64 F (18 C)
Relative Humidity: 100%
Pressure (altimeter): 29.85 in. Hg (1011 hPa)
ob: FMMI 060130Z 30011KT 6000 -RA FEW010 BKN020 18/18 Q1011 NOSIG
cycle: 1

Station Type Date Time Source
FMMI TAF 2021/03/05 18:06 UTC NOAA

TAF FMMI 051700Z 0518/0624 04010KT 9999 FEW010 BKN020CB
TEMPO 0518/0606 4000 RA
BECMG 0520/0523 FEW010 BKN020 PROB40
TEMPO 0600/0604 32015G30KT
BECMG 0603/0607 26012KT
BECMG 0610/0612 BKN020CB

Example: see airport list